Time;durP1;ratioP1;P1;durP2;ratioP2;P2;SDS_P1;SDS_P2;PMS_P1;PMS_P2;Temp;Humidity;BMP_temperature;BMP_pressure;BME280_temperature;BME280_humidity;BME280_pressure;Samples;Min_cycle;Max_cycle;Signal;HPM_P1;HPM_P2
2022/06/25 00:00:31;;;;;;;3.40;1.60;;;;;;;26.85;46.10;99091.13;4902864;29;20032;-85
2022/06/25 00:02:57;;;;;;;3.47;1.42;;;;;;;26.85;46.00;99088.44;4903242;29;20110;-86
2022/06/25 00:05:28;;;;;;;2.13;1.50;;;;;;;26.85;46.34;99091.13;4904909;29;20027;-86
2022/06/25 00:07:57;;;;;;;2.30;1.48;;;;;;;26.84;46.23;99078.72;4905352;29;20095;-86
2022/06/25 00:10:23;;;;;;;3.45;1.77;;;;;;;26.84;46.37;99089.44;4906441;29;20020;-85
2022/06/25 00:12:49;;;;;;;3.25;1.60;;;;;;;26.81;46.28;99075.34;4904626;29;20028;-85
2022/06/25 00:15:15;;;;;;;2.75;1.50;;;;;;;26.81;46.37;99079.84;4902530;29;20042;-86
2022/06/25 00:17:41;;;;;;;2.67;1.65;;;;;;;26.80;46.42;99068.31;4903321;29;20028;-87
2022/06/25 00:20:07;;;;;;;3.45;1.67;;;;;;;26.80;46.46;99073.69;4903291;29;20039;-85
2022/06/25 00:22:33;;;;;;;3.40;1.67;;;;;;;26.79;46.33;99074.63;4902726;29;20032;-86
2022/06/25 00:24:59;;;;;;;2.65;1.60;;;;;;;26.79;46.74;99074.63;4902953;29;20023;-86
2022/06/25 00:27:25;;;;;;;3.22;1.70;;;;;;;26.79;46.32;99073.81;4920139;29;20028;-88
2022/06/25 00:29:51;;;;;;;2.92;1.50;;;;;;;26.78;46.24;99064.91;4902939;29;20366;-88
2022/06/25 00:32:16;;;;;;;3.08;1.73;;;;;;;26.77;46.18;99063.25;4919963;29;20024;-85
2022/06/25 00:34:42;;;;;;;2.67;1.75;;;;;;;26.76;46.51;99053.53;4902169;29;20032;-86
2022/06/25 00:37:08;;;;;;;3.17;1.75;;;;;;;26.75;46.27;99057.19;4904094;29;20028;-87
2022/06/25 00:39:34;;;;;;;2.95;1.70;;;;;;;26.75;46.44;99051.84;4902201;29;20106;-85
2022/06/25 00:42:00;;;;;;;4.00;1.63;;;;;;;26.75;46.54;99057.19;4901058;29;20044;-85
2022/06/25 00:44:30;;;;;;;2.63;1.73;;;;;;;26.73;46.44;99051.13;4907244;29;20028;-88
2022/06/25 00:46:57;;;;;;;2.80;1.45;;;;;;;26.72;46.40;99049.44;4921809;29;20031;-86
2022/06/25 00:49:22;;;;;;;3.65;1.52;;;;;;;26.73;46.52;99044.94;4902814;29;20024;-85
2022/06/25 00:51:51;;;;;;;2.78;1.67;;;;;;;26.73;46.31;99035.06;4902260;29;20469;-85
2022/06/25 00:54:18;;;;;;;2.15;1.38;;;;;;;26.72;46.38;99032.53;4903669;29;20032;-84
2022/06/25 00:56:49;;;;;;;3.60;1.52;;;;;;;26.70;46.52;99021.97;4902615;29;20032;-85
2022/06/25 00:59:19;;;;;;;3.13;1.85;;;;;;;26.71;46.48;99023.66;4902012;29;20492;-86
2022/06/25 01:01:45;;;;;;;2.70;1.48;;;;;;;26.70;46.30;99023.78;4917696;29;20473;-86
2022/06/25 01:04:11;;;;;;;3.28;1.40;;;;;;;26.69;46.73;99028.31;4902108;29;20028;-85
2022/06/25 01:06:36;;;;;;;3.15;1.70;;;;;;;26.68;46.44;99018.56;4902030;29;20051;-86
2022/06/25 01:09:02;;;;;;;2.78;1.50;;;;;;;26.68;46.68;99015.91;4902348;29;20032;-85
2022/06/25 01:11:27;;;;;;;4.45;2.08;;;;;;;26.66;46.45;99017.88;4902370;29;20020;-85
2022/06/25 01:13:54;;;;;;;2.20;1.50;;;;;;;26.64;46.81;99014.53;4921050;29;20032;-86
2022/06/25 01:16:21;;;;;;;3.80;1.70;;;;;;;26.63;46.57;99015.50;4904641;29;20032;-85
2022/06/25 01:18:47;;;;;;;2.70;1.63;;;;;;;26.60;46.83;99023.81;4902342;29;20028;-85
2022/06/25 01:21:13;;;;;;;2.92;1.65;;;;;;;26.59;46.70;99017.63;4902786;29;20028;-85
2022/06/25 01:23:40;;;;;;;4.40;1.70;;;;;;;26.57;46.69;99018.75;4902263;29;20024;-85
2022/06/25 01:26:05;;;;;;;3.05;1.73;;;;;;;26.55;46.83;99016.22;4905315;29;20032;-85
2022/06/25 01:28:31;;;;;;;2.65;1.73;;;;;;;26.54;46.90;99015.34;4922481;29;20095;-87
2022/06/25 01:30:57;;;;;;;3.67;1.92;;;;;;;26.52;46.93;99000.44;4921252;29;20473;-85
2022/06/25 01:33:22;;;;;;;3.88;1.58;;;;;;;26.52;47.07;98998.59;4906082;29;20031;-84
2022/06/25 01:35:48;;;;;;;2.50;1.40;;;;;;;26.52;47.11;98997.75;4906318;29;20024;-86
2022/06/25 01:38:13;;;;;;;4.25;1.70;;;;;;;26.51;46.81;98999.59;4922049;29;20034;-86
2022/06/25 01:40:39;;;;;;;2.58;1.58;;;;;;;26.49;46.68;98995.38;4908244;29;20028;-86
2022/06/25 01:43:05;;;;;;;4.15;1.70;;;;;;;26.49;47.02;98990.84;4921445;29;20051;-86
2022/06/25 01:45:36;;;;;;;3.00;1.70;;;;;;;26.48;47.00;98989.16;4928237;29;20027;-85
2022/06/25 01:48:03;;;;;;;2.70;1.50;;;;;;;26.48;46.81;98986.50;4943273;29;20027;-86
2022/06/25 01:50:29;;;;;;;2.60;1.42;;;;;;;26.48;46.77;98986.50;4928099;29;20036;-85
2022/06/25 01:52:55;;;;;;;3.90;1.65;;;;;;;26.47;46.84;98982.13;4930281;29;20024;-86
2022/06/25 01:55:21;;;;;;;2.95;1.50;;;;;;;26.47;46.83;98981.28;4943149;29;20160;-87
2022/06/25 01:57:48;;;;;;;3.88;1.70;;;;;;;26.45;47.02;98980.59;4923985;29;20044;-86
2022/06/25 02:00:24;;;;;;;3.47;1.70;;;;;;;26.45;46.96;98973.41;4923542;29;20118;-86
2022/06/25 02:02:50;;;;;;;4.07;1.60;;;;;;;26.44;47.20;98961.00;4939472;29;20031;-86
2022/06/25 02:05:17;;;;;;;2.33;1.40;;;;;;;26.43;47.23;98971.88;4940852;29;20087;-86
2022/06/25 02:07:45;;;;;;;2.53;1.42;;;;;;;26.42;47.13;98968.34;4925242;29;20027;-87
2022/06/25 02:10:10;;;;;;;4.03;1.30;;;;;;;26.42;47.19;98968.34;4941210;29;20031;-88
2022/06/25 02:12:37;;;;;;;2.25;1.30;;;;;;;26.39;47.26;98963.28;4926038;29;20170;-88
2022/06/25 02:15:03;;;;;;;4.45;1.80;;;;;;;26.39;47.54;98964.09;4925260;29;20043;-87
2022/06/25 02:17:29;;;;;;;2.60;1.38;;;;;;;26.38;47.34;98958.91;4940860;29;20028;-87
2022/06/25 02:19:55;;;;;;;3.20;1.50;;;;;;;26.37;47.52;98951.84;4924932;29;20023;-86
2022/06/25 02:22:20;;;;;;;2.28;1.52;;;;;;;26.37;47.36;98952.72;4940891;29;20023;-88
2022/06/25 02:24:46;;;;;;;1.90;1.30;;;;;;;26.36;47.60;98950.19;4924519;29;20369;-86
2022/06/25 02:27:11;;;;;;;2.88;1.45;;;;;;;26.36;47.76;98959.06;4924580;29;20094;-85
2022/06/25 02:29:37;;;;;;;2.95;1.60;;;;;;;26.35;47.46;98951.16;4924273;29;20500;-85
2022/06/25 02:32:03;;;;;;;2.28;1.40;;;;;;;26.33;47.78;98947.81;4922606;29;20026;-85
2022/06/25 02:34:29;;;;;;;2.55;1.45;;;;;;;26.32;47.66;98948.75;4922389;29;20060;-85
2022/06/25 02:36:55;;;;;;;2.70;1.60;;;;;;;26.32;47.72;98948.75;4922195;29;20028;-85
2022/06/25 02:39:20;;;;;;;2.58;1.50;;;;;;;26.32;47.60;98944.28;4922715;29;20050;-85
2022/06/25 02:41:46;;;;;;;2.60;1.30;;;;;;;26.31;47.31;98933.72;4938245;29;20047;-86
2022/06/25 02:44:11;;;;;;;2.55;1.50;;;;;;;26.31;47.69;98936.38;4922498;29;20148;-86
2022/06/25 02:46:37;;;;;;;2.00;1.33;;;;;;;26.31;47.50;98933.72;4922545;29;20055;-86
2022/06/25 02:49:03;;;;;;;2.60;1.42;;;;;;;26.30;47.74;98926.69;4922850;29;20051;-85
2022/06/25 02:51:29;;;;;;;3.35;1.30;;;;;;;26.30;47.43;98932.03;4922757;29;20434;-86
2022/06/25 02:53:58;;;;;;;2.25;1.25;;;;;;;26.29;47.68;98930.34;4922857;29;20046;-85
2022/06/25 02:59:08;;;;;;;1.80;1.20;;;;;;;26.27;47.45;98912.63;4945377;29;20042;-85
2022/06/25 03:01:34;;;;;;;2.67;1.60;;;;;;;26.29;47.63;98908.94;4925554;29;20480;-86
2022/06/25 03:04:00;;;;;;;3.20;1.50;;;;;;;26.26;47.35;98900.19;4921947;29;20027;-88
2022/06/25 03:06:26;;;;;;;2.50;1.38;;;;;;;26.26;47.21;98894.84;4922111;29;20112;-86
2022/06/25 03:08:52;;;;;;;2.55;1.30;;;;;;;26.24;47.52;98896.84;4922240;29;20390;-85
2022/06/25 03:11:19;;;;;;;2.20;1.40;;;;;;;26.23;47.88;98897.81;4922452;29;20023;-86
2022/06/25 03:13:44;;;;;;;2.95;1.38;;;;;;;26.24;47.58;98896.84;4922549;29;20027;-86
2022/06/25 03:16:10;;;;;;;2.10;1.30;;;;;;;26.22;47.65;98888.09;4923721;29;20039;-86
2022/06/25 03:18:36;;;;;;;2.85;1.30;;;;;;;26.21;47.67;98881.06;4921672;29;20496;-87
2022/06/25 03:21:03;;;;;;;2.88;1.40;;;;;;;26.19;47.68;98885.69;4921814;29;20043;-85
2022/06/25 03:23:28;;;;;;;2.22;1.23;;;;;;;26.18;47.78;98875.97;4923409;29;20035;-84
2022/06/25 03:25:54;;;;;;;2.33;1.40;;;;;;;26.17;47.85;98874.31;4921659;29;20094;-84
2022/06/25 03:28:20;;;;;;;3.03;1.55;;;;;;;26.16;47.94;98877.97;4938108;29;20113;-86
2022/06/25 03:30:46;;;;;;;2.35;1.55;;;;;;;26.16;47.67;98871.75;4921408;29;20030;-85
2022/06/25 03:33:12;;;;;;;2.80;1.55;;;;;;;26.13;47.89;98862.19;4921191;29;20023;-84
2022/06/25 03:35:38;;;;;;;3.13;1.70;;;;;;;26.12;48.06;98866.72;4921260;29;20027;-85
2022/06/25 03:38:04;;;;;;;3.92;1.30;;;;;;;26.12;48.22;98872.06;4938437;29;20102;-85
2022/06/25 03:40:30;;;;;;;1.95;1.30;;;;;;;26.10;48.16;98868.66;4921188;29;20042;-84
2022/06/25 03:42:56;;;;;;;4.50;1.73;;;;;;;26.10;48.08;98863.31;4921067;29;20048;-85
2022/06/25 03:45:22;;;;;;;2.17;1.50;;;;;;;26.11;47.97;98870.34;4937837;29;20054;-85
2022/06/25 03:47:50;;;;;;;3.13;1.50;;;;;;;26.10;48.11;98866.00;4920736;29;20177;-85
2022/06/25 03:50:19;;;;;;;2.53;1.40;;;;;;;26.10;48.13;98867.84;4921700;29;20042;-85
2022/06/25 03:52:46;;;;;;;2.45;1.50;;;;;;;26.07;48.31;98868.09;4922620;29;20414;-85
2022/06/25 03:55:12;;;;;;;2.72;1.60;;;;;;;26.10;48.14;98862.50;4939808;29;20110;-84
2022/06/25 03:57:39;;;;;;;3.70;1.38;;;;;;;26.07;47.95;98862.75;4939328;29;20062;-87
2022/06/25 04:00:08;;;;;;;2.35;1.50;;;;;;;26.06;48.01;98861.06;4922817;29;20027;-89
2022/06/25 04:02:35;;;;;;;2.67;1.95;;;;;;;26.06;48.21;98861.06;4926394;29;20039;-84
2022/06/25 04:05:01;;;;;;;3.40;1.48;;;;;;;26.04;48.39;98857.72;4927863;29;20370;-84
2022/06/25 04:07:27;;;;;;;3.42;1.40;;;;;;;26.05;48.20;98864.75;4922897;29;20481;-84
2022/06/25 04:09:52;;;;;;;2.38;1.33;;;;;;;26.04;48.12;98857.72;4920930;29;20118;-85
2022/06/25 04:12:18;;;;;;;2.63;1.45;;;;;;;26.04;48.05;98863.06;4920870;29;20102;-86
2022/06/25 04:14:43;;;;;;;2.97;1.50;;;;;;;26.01;48.39;98859.66;4921063;29;20038;-86
2022/06/25 04:17:10;;;;;;;2.00;1.30;;;;;;;25.99;48.51;98850.94;4920933;29;20424;-86
2022/06/25 04:19:40;;;;;;;2.03;1.30;;;;;;;25.97;48.53;98852.94;4920808;29;20027;-85
2022/06/25 04:22:12;;;;;;;2.45;1.35;;;;;;;25.97;48.43;98852.94;4936640;29;20098;-86
2022/06/25 04:24:40;;;;;;;2.92;1.63;;;;;;;25.94;48.56;98842.50;4920983;29;20027;-86
2022/06/25 04:27:07;;;;;;;3.10;1.50;;;;;;;25.92;48.45;98841.81;4938567;29;20027;-87
2022/06/25 04:29:32;;;;;;;3.97;1.77;;;;;;;25.92;48.58;98839.16;4925327;29;20052;-86
2022/06/25 04:31:58;;;;;;;1.88;1.25;;;;;;;25.91;48.53;98842.78;4927188;29;20027;-88
2022/06/25 04:34:24;;;;;;;3.28;1.48;;;;;;;25.90;48.66;98841.09;4946994;29;20049;-87
2022/06/25 04:36:50;;;;;;;3.40;1.55;;;;;;;25.90;48.73;98842.94;4945221;29;20024;-86
2022/06/25 04:39:16;;;;;;;3.72;1.50;;;;;;;25.90;48.44;98840.28;4938870;29;20027;-85
2022/06/25 04:41:41;;;;;;;3.45;1.45;;;;;;;25.88;48.65;98845.75;4920762;29;20138;-86
2022/06/25 04:44:07;;;;;;;3.22;1.58;;;;;;;25.87;48.80;98844.88;4921120;29;20469;-85
2022/06/25 04:46:32;;;;;;;3.08;1.50;;;;;;;25.86;48.88;98845.06;4937008;29;20038;-87
2022/06/25 04:48:58;;;;;;;5.00;1.33;;;;;;;25.85;48.63;98838.84;4939356;29;20365;-86
2022/06/25 04:51:28;;;;;;;2.78;1.52;;;;;;;25.86;48.73;98837.03;4937197;29;20016;-87
2022/06/25 04:53:57;;;;;;;2.55;1.23;;;;;;;25.85;48.73;98838.00;4936435;29;20034;-86
2022/06/25 04:56:29;;;;;;;3.95;1.55;;;;;;;25.83;48.68;98829.28;4920711;29;20078;-85
2022/06/25 04:58:55;;;;;;;3.78;1.45;;;;;;;25.83;48.46;98829.28;4921747;29;20036;-86
2022/06/25 05:01:21;;;;;;;3.28;1.80;;;;;;;25.81;48.89;98826.75;4925785;29;20099;-86
2022/06/25 05:03:47;;;;;;;3.10;1.60;;;;;;;25.81;48.64;98817.91;4925083;29;20457;-87
2022/06/25 05:06:13;;;;;;;3.35;1.60;;;;;;;25.79;48.76;98814.50;4927684;29;20119;-88
2022/06/25 05:08:39;;;;;;;2.63;1.80;;;;;;;25.77;48.80;98814.69;4930524;29;20036;-87
2022/06/25 05:11:05;;;;;;;3.80;1.90;;;;;;;25.78;48.48;98811.00;4929503;29;20082;-87
2022/06/25 05:13:30;;;;;;;3.65;1.48;;;;;;;25.76;48.45;98810.28;4924420;29;20028;-87
2022/06/25 05:15:56;;;;;;;4.82;1.92;;;;;;;25.76;48.81;98801.44;4941547;29;20028;-87
2022/06/25 05:18:21;;;;;;;4.07;2.03;;;;;;;25.77;48.70;98795.13;4924422;29;20035;-87
2022/06/25 05:20:47;;;;;;;3.20;1.85;;;;;;;25.76;48.71;98804.13;4941464;29;20076;-87
2022/06/25 05:23:13;;;;;;;5.47;1.85;;;;;;;25.76;48.56;98812.13;4924533;29;20028;-88
2022/06/25 05:25:40;;;;;;;3.28;2.03;;;;;;;25.76;48.50;98820.16;4924742;29;20032;-86
2022/06/25 05:28:06;;;;;;;3.42;1.70;;;;;;;25.75;48.68;98816.63;4924765;29;20050;-88
2022/06/25 05:30:33;;;;;;;4.20;1.90;;;;;;;25.74;48.49;98814.94;4925939;29;20458;-87
2022/06/25 05:32:59;;;;;;;3.50;1.83;;;;;;;25.76;48.41;98812.13;4928278;29;20028;-86
2022/06/25 05:35:24;;;;;;;4.80;1.90;;;;;;;25.76;48.33;98812.13;4943893;29;20087;-90
2022/06/25 05:37:51;;;;;;;3.15;1.77;;;;;;;25.77;48.42;98804.00;4941300;29;20042;-86
2022/06/25 05:40:17;;;;;;;3.55;1.80;;;;;;;25.77;48.31;98808.47;4923490;29;20175;-86
2022/06/25 05:42:43;;;;;;;3.22;1.60;;;;;;;25.78;48.41;98815.50;4941039;29;20048;-85
2022/06/25 05:45:09;;;;;;;4.10;1.88;;;;;;;25.79;48.30;98806.50;4931660;29;20038;-86
2022/06/25 05:47:35;;;;;;;3.60;1.83;;;;;;;25.78;48.18;98799.47;4927094;29;20118;-87
2022/06/25 05:50:00;;;;;;;4.05;1.90;;;;;;;25.81;48.15;98800.03;4926392;29;20063;-88
2022/06/25 05:52:26;;;;;;;2.83;1.70;;;;;;;25.81;48.26;98796.53;4925739;29;20440;-85
2022/06/25 05:54:52;;;;;;;3.10;1.95;;;;;;;25.82;48.34;98800.88;4923530;29;20108;-86
2022/06/25 05:57:17;;;;;;;3.17;1.85;;;;;;;25.83;48.21;98797.22;4923224;29;20335;-85
2022/06/25 05:59:43;;;;;;;2.88;1.55;;;;;;;25.83;48.05;98792.72;4922853;29;20111;-87
2022/06/25 06:02:08;;;;;;;3.53;1.80;;;;;;;25.83;48.16;98791.88;4923325;29;20035;-87
2022/06/25 06:04:34;;;;;;;2.40;1.60;;;;;;;25.83;48.26;98792.72;4928495;29;20402;-85
2022/06/25 06:07:00;;;;;;;4.30;1.90;;;;;;;25.85;47.87;98797.91;4925383;29;20060;-86
2022/06/25 06:09:27;;;;;;;4.57;1.75;;;;;;;25.86;48.18;98786.25;4940488;29;20027;-86
2022/06/25 06:11:55;;;;;;;3.30;1.60;;;;;;;25.85;48.28;98792.56;4925913;29;20350;-88
2022/06/25 06:14:21;;;;;;;3.05;1.52;;;;;;;25.85;48.24;98784.56;4945528;29;20035;-85
2022/06/25 06:16:47;;;;;;;2.30;1.63;;;;;;;25.87;47.80;98782.59;4926041;29;20489;-85
2022/06/25 06:19:12;;;;;;;2.58;1.45;;;;;;;25.87;48.03;98787.94;4922774;29;20031;-85
2022/06/25 06:21:38;;;;;;;2.35;1.55;;;;;;;25.87;48.08;98777.25;4922538;29;20365;-83
2022/06/25 06:24:03;;;;;;;2.60;1.58;;;;;;;25.86;48.19;98786.25;4922619;29;20431;-85
2022/06/25 06:26:29;;;;;;;3.60;1.63;;;;;;;25.84;48.14;98778.38;4938527;29;20462;-86
2022/06/25 06:28:54;;;;;;;3.35;1.58;;;;;;;25.83;48.27;98782.03;4938272;29;20074;-86
2022/06/25 06:31:20;;;;;;;2.17;1.50;;;;;;;25.84;48.24;98788.22;4922508;29;20051;-85
2022/06/25 06:33:46;;;;;;;3.88;1.80;;;;;;;25.82;48.34;98779.50;4922480;29;20472;-85
2022/06/25 06:36:12;;;;;;;5.40;1.70;;;;;;;25.80;48.27;98771.63;4923539;29;20462;-87
2022/06/25 06:38:38;;;;;;;3.80;1.75;;;;;;;25.85;47.92;98784.56;4944785;29;20039;-85
2022/06/25 06:41:04;;;;;;;3.35;1.67;;;;;;;25.85;47.91;98785.41;4922314;29;20023;-86
2022/06/25 06:43:30;;;;;;;4.88;1.70;;;;;;;25.84;47.92;98777.53;4922525;29;20054;-86
2022/06/25 06:45:55;;;;;;;2.40;1.45;;;;;;;25.84;47.86;98777.53;4922517;29;20028;-86
2022/06/25 06:48:21;;;;;;;2.85;1.60;;;;;;;25.85;47.90;98773.84;4923036;29;20110;-86
2022/06/25 06:50:46;;;;;;;2.67;1.60;;;;;;;25.83;47.93;98768.69;4924024;29;20386;-87
2022/06/25 06:53:12;;;;;;;3.55;1.98;;;;;;;25.82;47.84;98768.81;4924842;29;20102;-87
2022/06/25 06:55:38;;;;;;;3.90;1.60;;;;;;;25.83;47.80;98770.50;4925183;29;20023;-87
2022/06/25 06:58:03;;;;;;;3.40;1.80;;;;;;;25.85;47.79;98763.16;4923859;29;20023;-88
2022/06/25 07:00:29;;;;;;;2.47;1.25;;;;;;;25.88;48.05;98768.25;4923631;29;20024;-88
2022/06/25 07:02:54;;;;;;;2.55;1.50;;;;;;;25.87;47.95;98767.38;4925706;29;20027;-87
2022/06/25 07:05:20;;;;;;;3.63;1.63;;;;;;;25.88;47.70;98757.56;4924196;29;20031;-89
2022/06/25 07:07:47;;;;;;;3.10;1.40;;;;;;;25.89;47.80;98759.22;4923243;29;20090;-89
2022/06/25 07:10:13;;;;;;;2.97;1.50;;;;;;;25.90;47.62;98763.59;4927508;29;20063;-91
2022/06/25 07:12:39;;;;;;;3.28;1.42;;;;;;;25.90;47.66;98766.25;4927493;29;20369;-89
2022/06/25 07:15:06;;;;;;;2.65;1.67;;;;;;;25.91;47.66;98767.94;4927468;29;20109;-88
2022/06/25 07:17:31;;;;;;;2.88;1.50;;;;;;;25.91;47.73;98751.91;4927666;29;20458;-87
2022/06/25 07:19:58;;;;;;;1.92;1.38;;;;;;;25.94;47.81;98756.13;4945631;29;20038;-87
2022/06/25 07:22:23;;;;;;;3.28;1.65;;;;;;;25.94;47.73;98750.78;4943757;29;20034;-87
2022/06/25 07:24:49;;;;;;;3.80;1.52;;;;;;;25.95;47.50;98753.31;4939804;29;20102;-87
2022/06/25 07:27:14;;;;;;;2.88;1.40;;;;;;;25.95;47.74;98749.81;4922915;29;20024;-87
2022/06/25 07:29:40;;;;;;;2.78;1.63;;;;;;;25.96;47.96;98744.31;4924825;29;20038;-88
2022/06/25 07:32:06;;;;;;;5.75;1.83;;;;;;;25.97;47.94;98740.66;4926544;29;20027;-88
2022/06/25 07:34:32;;;;;;;3.45;1.80;;;;;;;25.99;47.97;98743.19;4924862;29;20035;-87
2022/06/25 07:36:58;;;;;;;3.33;1.73;;;;;;;26.02;47.66;98748.25;4924294;29;20378;-87
2022/06/25 07:39:23;;;;;;;2.17;1.42;;;;;;;26.04;47.58;98746.25;4922616;29;20023;-88
2022/06/25 07:41:49;;;;;;;2.72;1.50;;;;;;;26.04;47.64;98740.09;4923023;29;20462;-85
2022/06/25 07:44:14;;;;;;;2.40;1.30;;;;;;;26.06;47.50;98743.44;4926524;29;20043;-86
2022/06/25 07:46:40;;;;;;;3.72;1.65;;;;;;;26.09;47.16;98743.16;4926854;29;20024;-88
2022/06/25 07:49:07;;;;;;;3.33;1.35;;;;;;;26.08;47.03;98736.97;4924711;29;20366;-86
2022/06/25 07:54:16;;;;;;;2.75;1.63;;;;;;;26.11;46.78;98736.66;4938424;29;20609;-86
2022/06/25 07:56:42;;;;;;;2.70;1.30;;;;;;;26.13;46.65;98733.84;4921116;29;20126;-87
2022/06/25 07:59:08;;;;;;;2.53;1.52;;;;;;;26.14;46.81;98740.88;4938831;29;20102;-86
2022/06/25 08:01:33;;;;;;;3.13;1.48;;;;;;;26.14;46.66;98731.06;4940086;29;20106;-87
2022/06/25 08:03:59;;;;;;;1.75;1.17;;;;;;;26.18;46.41;98733.41;4924532;29;20038;-89
2022/06/25 08:06:25;;;;;;;2.03;1.30;;;;;;;26.19;46.14;98727.94;4939541;29;20031;-88
2022/06/25 08:08:50;;;;;;;2.33;1.10;;;;;;;26.20;46.28;98728.78;4931975;29;20003;-91
2022/06/25 08:11:16;;;;;;;3.10;1.13;;;;;;;26.22;46.23;98714.28;4935521;29;20130;-89
2022/06/25 08:13:42;;;;;;;3.58;1.20;;;;;;;26.24;46.46;98714.19;4923170;29;20035;-86
2022/06/25 08:16:09;;;;;;;3.38;1.55;;;;;;;26.24;46.33;98698.97;4928809;29;20028;-87
2022/06/25 08:18:36;;;;;;;3.15;1.30;;;;;;;26.25;46.19;98703.31;4938944;29;20095;-88
2022/06/25 08:21:02;;;;;;;2.33;1.02;;;;;;;26.29;46.18;98695.84;4922258;29;20027;-86
2022/06/25 08:23:28;;;;;;;2.05;0.88;;;;;;;26.32;45.93;98700.03;4922557;29;20099;-86
2022/06/25 08:25:54;;;;;;;5.53;1.23;;;;;;;26.33;45.61;98688.38;4926082;29;20027;-86
2022/06/25 08:28:19;;;;;;;3.40;1.30;;;;;;;26.33;45.91;98701.75;4928648;29;20444;-87
2022/06/25 08:30:45;;;;;;;3.50;1.00;;;;;;;26.35;45.80;98689.06;4942318;29;20068;-86
2022/06/25 08:33:11;;;;;;;3.58;1.40;;;;;;;26.39;45.87;98690.47;4922818;29;20350;-87
2022/06/25 08:35:37;;;;;;;2.40;1.25;;;;;;;26.40;45.87;98684.94;4926968;29;20060;-87
2022/06/25 08:38:03;;;;;;;3.13;1.00;;;;;;;26.43;45.59;98691.00;4945056;29;20024;-86
2022/06/25 08:40:29;;;;;;;3.97;1.33;;;;;;;26.45;45.81;98683.66;4942200;29;20019;-86
2022/06/25 08:42:54;;;;;;;2.42;1.10;;;;;;;26.44;45.67;98688.16;4942782;29;20404;-87
2022/06/25 08:45:20;;;;;;;3.38;1.35;;;;;;;26.48;45.76;98686.88;4929380;29;20063;-90
2022/06/25 08:47:47;;;;;;;2.53;0.98;;;;;;;26.50;45.65;98686.75;4932837;29;20034;-89
2022/06/25 08:50:16;;;;;;;2.65;0.95;;;;;;;26.52;45.56;98685.59;4946914;29;20040;-88
2022/06/25 08:52:50;;;;;;;5.90;1.30;;;;;;;26.53;45.54;98681.06;4944348;29;20038;-89
2022/06/25 08:55:32;;;;;;;2.72;1.38;;;;;;;26.55;45.69;98681.78;4926020;29;20035;-89
2022/06/25 08:58:00;;;;;;;2.53;0.80;;;;;;;26.56;45.45;98679.94;4926124;29;20023;-87
2022/06/25 09:00:27;;;;;;;2.15;1.10;;;;;;;26.58;45.30;98683.34;4927446;29;20028;-88
2022/06/25 09:02:53;;;;;;;2.22;0.80;;;;;;;26.59;45.17;98668.97;4943371;29;20027;-88
2022/06/25 09:05:31;;;;;;;3.03;1.20;;;;;;;26.59;44.80;98685.00;4944492;29;20039;-88
2022/06/25 09:07:58;;;;;;;3.08;1.00;;;;;;;26.61;44.80;98670.50;4942621;29;20035;-90
2022/06/25 09:10:25;;;;;;;3.13;0.95;;;;;;;26.63;44.76;98678.38;4930013;29;20028;-89
2022/06/25 09:12:55;;;;;;;2.45;0.98;;;;;;;26.65;45.07;98679.06;4932454;29;20024;-89
2022/06/25 09:15:27;;;;;;;2.83;1.17;;;;;;;26.66;44.76;98680.72;4932829;29;20121;-89
2022/06/25 09:17:54;;;;;;;1.67;1.00;;;;;;;26.67;44.89;98671.72;4943228;29;20035;-90
2022/06/25 09:20:20;;;;;;;3.47;1.10;;;;;;;26.70;44.69;98679.44;4925550;29;20052;-87
2022/06/25 09:23:12;;;;;;;2.90;1.00;;;;;;;26.71;45.03;98678.44;4928738;29;20095;-86
2022/06/25 09:25:41;;;;;;;3.80;0.98;;;;;;;26.74;45.02;98677.31;4936541;29;20019;-88
2022/06/25 09:28:07;;;;;;;3.40;1.05;;;;;;;26.76;45.03;98684.19;4918547;29;20020;-86
2022/06/25 09:30:38;;;;;;;1.63;1.08;;;;;;;26.78;45.05;98684.88;4916408;29;20034;-84
2022/06/25 09:33:04;;;;;;;2.38;0.95;;;;;;;26.79;45.01;98691.09;4936181;29;20028;-88
2022/06/25 09:35:34;;;;;;;1.77;0.90;;;;;;;26.80;44.98;98682.91;4925102;29;20063;-87
2022/06/25 09:38:01;;;;;;;3.28;1.15;;;;;;;26.81;45.25;98689.94;4935524;29;20031;-89
2022/06/25 09:40:28;;;;;;;2.78;1.05;;;;;;;26.84;45.27;98704.00;4929935;29;20093;-86
2022/06/25 09:42:55;;;;;;;1.88;0.93;;;;;;;26.84;45.21;98695.97;4918074;29;20047;-84
2022/06/25 09:45:21;;;;;;;2.22;1.10;;;;;;;26.86;45.13;98705.53;4925319;29;20020;-87
2022/06/25 09:47:46;;;;;;;2.03;1.00;;;;;;;26.86;45.28;98702.00;4925208;29;20058;-85
2022/06/25 09:50:19;;;;;;;2.03;1.15;;;;;;;26.87;45.51;98698.38;4915603;29;20028;-86
2022/06/25 09:52:53;;;;;;;2.17;1.10;;;;;;;26.87;45.35;98676.97;4927963;29;20027;-85
2022/06/25 09:55:22;;;;;;;2.53;1.20;;;;;;;26.89;45.07;98683.00;4927093;29;20066;-84
2022/06/25 09:57:48;;;;;;;1.85;0.80;;;;;;;26.91;45.39;98699.72;4923371;29;20051;-85
2022/06/25 10:00:14;;;;;;;1.48;0.90;;;;;;;26.91;45.49;98689.03;4921059;29;20046;-84
2022/06/25 10:02:44;;;;;;;2.05;1.10;;;;;;;26.93;45.61;98700.47;4922769;29;20027;-82
2022/06/25 10:05:11;;;;;;;1.92;1.05;;;;;;;26.94;45.33;98702.97;4922776;29;20461;-82
2022/06/25 10:10:22;;;;;;;7.13;2.20;;;;;;;26.98;45.69;98711.56;4928884;29;20083;-83
2022/06/25 10:12:50;;;;;;;1.95;0.98;;;;;;;26.99;45.64;98715.94;4922528;29;20183;-85
2022/06/25 10:15:21;;;;;;;1.98;1.00;;;;;;;27.03;45.55;98735.22;4922501;29;20035;-84
2022/06/25 10:17:51;;;;;;;1.92;0.90;;;;;;;27.02;45.43;98750.41;4936872;29;20031;-85
2022/06/25 10:20:18;;;;;;;2.63;1.08;;;;;;;27.03;45.69;98768.16;4938098;29;20168;-86
2022/06/25 10:22:48;;;;;;;2.50;1.00;;;;;;;27.03;45.45;98784.22;4910649;29;20025;-85
2022/06/25 10:25:21;;;;;;;3.33;1.10;;;;;;;27.03;45.24;98799.47;4926275;29;20039;-87
2022/06/25 10:28:04;;;;;;;3.60;1.23;;;;;;;27.01;45.42;98791.56;4919965;29;20031;-85
2022/06/25 10:30:49;;;;;;;2.63;1.17;;;;;;;27.01;45.26;98786.22;4938215;29;20469;-85
2022/06/25 10:33:19;;;;;;;4.07;1.17;;;;;;;26.99;45.67;98788.22;4931092;29;20032;-85
2022/06/25 10:35:45;;;;;;;1.48;0.95;;;;;;;27.01;45.63;98791.56;4922388;29;20746;-85
2022/06/25 10:38:21;;;;;;;2.10;1.08;;;;;;;27.01;45.68;98799.59;4938914;29;20032;-90
2022/06/25 10:40:50;;;;;;;;;;;;;;;27.03;45.38;98794.94;4908847;29;20036;-89
2022/06/25 10:43:54;;;;;;;2.13;1.10;;;;;;;27.04;45.36;98796.63;4941448;29;19970;-87
2022/06/25 11:10:51;;;;;;;4.70;1.70;;;;;;;27.16;45.78;98789.22;4920098;29;20177;-84
2022/06/25 11:16:38;;;;;;;3.78;1.55;;;;;;;27.22;46.02;98798.50;4919400;29;20055;-84
2022/06/25 11:19:03;;;;;;;2.67;1.30;;;;;;;27.25;45.86;98786.66;4918681;29;20032;-86
2022/06/25 11:21:30;;;;;;;3.72;1.30;;;;;;;27.27;45.87;98780.16;4918415;29;20378;-84
2022/06/25 11:24:28;;;;;;;4.93;1.30;;;;;;;27.29;45.79;98774.63;4918717;29;20023;-86
2022/06/25 11:29:47;;;;;;;3.47;1.30;;;;;;;27.32;45.95;98799.25;4923766;29;20043;-86
2022/06/25 11:32:15;;;;;;;2.47;1.33;;;;;;;27.34;46.03;98788.41;4906548;29;20106;-85
2022/06/25 11:34:41;;;;;;;3.15;1.45;;;;;;;27.36;46.25;98804.34;4922552;29;20419;-87
2022/06/25 11:37:18;;;;;;;2.65;1.30;;;;;;;27.36;46.22;98804.34;4922780;29;20031;-86
2022/06/25 11:39:46;;;;;;;3.55;1.38;;;;;;;27.37;46.42;98811.38;4919932;29;20055;-86
2022/06/25 11:42:12;;;;;;;3.00;1.70;;;;;;;27.37;46.23;98806.00;4918312;29;20047;-86
2022/06/25 11:44:46;;;;;;;4.75;1.77;;;;;;;27.39;46.59;98806.69;4917969;29;20126;-85
2022/06/25 11:47:19;;;;;;;2.95;1.88;;;;;;;27.40;46.82;98800.38;4917950;29;20090;-85
2022/06/25 11:49:46;;;;;;;3.13;1.80;;;;;;;27.40;46.27;98789.66;4918105;29;20036;-85
2022/06/25 11:52:13;;;;;;;3.97;1.55;;;;;;;27.40;47.07;98778.94;4920762;29;20126;-85
2022/06/25 11:54:40;;;;;;;2.72;1.90;;;;;;;27.39;46.68;98774.53;4918981;29;20103;-84
2022/06/25 11:57:08;;;;;;;3.28;1.90;;;;;;;27.40;46.59;98784.28;4919003;29;20533;-85
2022/06/25 11:59:36;;;;;;;2.50;1.52;;;;;;;27.39;46.67;98787.94;4919022;29;20036;-84
2022/06/25 12:02:04;;;;;;;5.25;2.55;;;;;;;27.39;46.78;98788.78;4922913;29;20043;-84
2022/06/25 12:04:32;;;;;;;6.30;1.80;;;;;;;27.41;46.71;98802.03;4924078;29;20096;-86
2022/06/25 12:06:59;;;;;;;3.83;2.00;;;;;;;27.41;46.72;98815.44;4920283;29;20028;-85
2022/06/25 12:09:25;;;;;;;3.58;1.60;;;;;;;27.41;46.71;98824.31;4922683;29;20478;-85
2022/06/25 12:11:51;;;;;;;3.53;1.67;;;;;;;27.42;46.67;98820.66;4922677;29;20024;-85